createdAt,value
2022-08-26T00:01:30.201Z,23.27
2022-08-26T00:04:16.488Z,23.20
2022-08-26T00:07:01.817Z,23.15
2022-08-26T00:09:47.389Z,23.11
2022-08-26T00:12:36.145Z,23.03
2022-08-26T00:15:23.340Z,22.98
2022-08-26T00:18:16.752Z,22.90
2022-08-26T00:21:08.771Z,22.85
2022-08-26T00:23:54.181Z,22.81
2022-08-26T00:26:39.646Z,22.74
2022-08-26T00:29:26.636Z,22.70
2022-08-26T00:32:11.546Z,22.67
2022-08-26T00:34:56.410Z,22.64
2022-08-26T00:37:42.587Z,22.60
2022-08-26T00:40:42.923Z,22.59
2022-08-26T00:43:32.233Z,22.53
2022-08-26T00:46:34.982Z,22.50
2022-08-26T00:49:41.321Z,22.47
2022-08-26T00:52:27.445Z,22.45
2022-08-26T00:55:26.620Z,22.41
2022-08-26T00:58:26.633Z,22.38
2022-08-26T01:01:12.307Z,22.34
2022-08-26T01:03:59.076Z,22.31
2022-08-26T01:06:46.442Z,22.30
2022-08-26T01:09:32.107Z,22.28
2022-08-26T01:12:21.950Z,22.26
2022-08-26T01:15:10.060Z,22.23
2022-08-26T01:17:55.115Z,22.17
2022-08-26T01:21:13.793Z,22.18
2022-08-26T01:23:59.578Z,22.24
2022-08-26T01:26:45.017Z,22.18
2022-08-26T01:29:33.698Z,22.06
2022-08-26T01:32:22.020Z,21.99
2022-08-26T01:35:08.695Z,21.96
2022-08-26T01:37:55.827Z,21.96
2022-08-26T01:40:42.150Z,21.96
2022-08-26T01:43:31.319Z,22.02
2022-08-26T01:46:18.537Z,21.94
2022-08-26T01:49:06.688Z,21.84
2022-08-26T01:51:54.912Z,21.81
2022-08-26T01:54:40.384Z,21.78
2022-08-26T01:57:26.131Z,21.76
2022-08-26T02:00:12.788Z,21.71
2022-08-26T02:03:02.691Z,21.71
2022-08-26T02:05:56.004Z,21.79
2022-08-26T02:08:45.181Z,21.75
2022-08-26T02:11:30.093Z,21.68
2022-08-26T02:14:27.882Z,21.65
2022-08-26T02:17:13.121Z,21.60
2022-08-26T02:19:58.587Z,21.61
2022-08-26T02:22:45.151Z,21.61
2022-08-26T02:25:52.419Z,21.59
2022-08-26T02:28:44.892Z,21.59
2022-08-26T02:31:30.085Z,21.59
2022-08-26T02:34:20.319Z,21.57
2022-08-26T02:37:09.585Z,21.52
2022-08-26T02:39:54.699Z,21.48
2022-08-26T02:42:39.808Z,21.47
2022-08-26T02:45:26.063Z,21.45
2022-08-26T02:48:18.829Z,21.41
2022-08-26T02:51:04.069Z,21.34
2022-08-26T02:53:49.817Z,21.33
2022-08-26T02:56:36.528Z,21.34
2022-08-26T02:59:24.357Z,21.34
2022-08-26T03:02:10.007Z,21.37
2022-08-26T03:04:57.991Z,21.33
2022-08-26T03:07:48.032Z,21.32
2022-08-26T03:10:32.979Z,21.16
2022-08-26T03:13:18.462Z,21.07
2022-08-26T03:16:04.527Z,20.97
2022-08-26T03:18:52.413Z,20.79
2022-08-26T03:21:39.422Z,20.64
2022-08-26T03:24:24.924Z,20.64
2022-08-26T03:27:10.204Z,20.63
2022-08-26T03:29:55.708Z,20.66
2022-08-26T03:32:41.478Z,20.64
2022-08-26T03:35:27.033Z,20.70
2022-08-26T03:38:12.373Z,20.71
2022-08-26T03:40:57.476Z,20.72
2022-08-26T03:43:42.892Z,20.70
2022-08-26T03:46:28.620Z,20.68
2022-08-26T03:49:13.853Z,20.58
2022-08-26T03:52:00.385Z,20.49
2022-08-26T03:54:45.595Z,20.47
2022-08-26T03:57:32.637Z,20.45
2022-08-26T04:00:18.479Z,20.39
2022-08-26T04:03:04.069Z,20.38
2022-08-26T04:05:51.867Z,20.39
2022-08-26T04:08:38.098Z,20.29
2022-08-26T04:11:26.809Z,20.22
2022-08-26T04:14:17.523Z,20.23
2022-08-26T04:17:05.781Z,20.22
2022-08-26T04:19:53.050Z,20.18
2022-08-26T04:22:38.393Z,20.15
2022-08-26T04:25:24.208Z,20.10
2022-08-26T04:28:09.940Z,20.07
2022-08-26T04:30:55.470Z,20.08
2022-08-26T04:33:41.683Z,20.12
2022-08-26T04:36:26.943Z,20.17
2022-08-26T04:39:13.830Z,20.18
2022-08-26T04:41:59.689Z,20.14
2022-08-26T04:44:47.075Z,20.11
2022-08-26T04:47:32.570Z,20.12
2022-08-26T04:50:18.377Z,20.11
2022-08-26T04:53:07.173Z,20.06
2022-08-26T04:55:55.261Z,20.03
2022-08-26T04:58:40.450Z,20.04
2022-08-26T05:01:27.373Z,20.08
2022-08-26T05:04:12.847Z,20.11
2022-08-26T05:07:02.805Z,20.01
2022-08-26T05:09:47.954Z,19.92
2022-08-26T05:12:33.785Z,19.89
2022-08-26T05:15:19.162Z,19.87
2022-08-26T05:18:06.814Z,19.83
2022-08-26T05:20:54.733Z,19.84
2022-08-26T05:23:39.997Z,19.89
2022-08-26T05:26:28.716Z,19.95
2022-08-26T05:29:13.967Z,19.97
2022-08-26T05:31:59.269Z,19.90
2022-08-26T05:34:44.229Z,19.90
2022-08-26T05:37:31.269Z,19.93
2022-08-26T05:40:16.801Z,19.97
2022-08-26T05:43:04.591Z,20.00
2022-08-26T05:45:50.394Z,20.08
2022-08-26T05:48:36.401Z,20.10
2022-08-26T05:51:25.419Z,20.09
2022-08-26T05:54:12.652Z,20.15
2022-08-26T05:56:57.738Z,20.18
2022-08-26T05:59:43.060Z,20.25
2022-08-26T06:02:28.451Z,20.33
2022-08-26T06:05:13.959Z,20.33
2022-08-26T06:07:59.309Z,20.47
2022-08-26T06:10:53.939Z,20.60
2022-08-26T06:13:39.984Z,20.70
2022-08-26T06:16:25.628Z,20.75
2022-08-26T06:19:13.497Z,20.80
2022-08-26T06:21:58.954Z,20.85
2022-08-26T06:24:44.355Z,20.88
2022-08-26T06:27:32.806Z,20.91
2022-08-26T06:30:18.128Z,20.94
2022-08-26T06:33:04.203Z,21.01
2022-08-26T06:35:50.919Z,21.04
2022-08-26T06:38:36.494Z,21.04
2022-08-26T06:41:22.957Z,21.13
2022-08-26T06:44:07.840Z,21.13
2022-08-26T06:46:52.956Z,21.13
2022-08-26T06:49:39.832Z,21.10
2022-08-26T06:52:24.874Z,21.09
2022-08-26T06:55:09.971Z,21.11
2022-08-26T06:57:56.268Z,21.12
2022-08-26T07:00:41.719Z,21.28
2022-08-26T07:03:32.768Z,21.32
2022-08-26T07:06:26.191Z,21.47
2022-08-26T07:09:11.596Z,21.64
2022-08-26T07:11:56.918Z,21.77
2022-08-26T07:14:47.264Z,21.88
2022-08-26T07:17:33.548Z,22.08
2022-08-26T07:20:19.400Z,22.18
2022-08-26T07:23:04.893Z,22.40
2022-08-26T07:25:55.520Z,22.37
2022-08-26T07:28:40.741Z,22.30
2022-08-26T07:31:35.983Z,22.51
2022-08-26T07:34:24.659Z,22.85
2022-08-26T07:37:11.977Z,23.00
2022-08-26T07:39:57.148Z,23.24
2022-08-26T07:42:42.445Z,23.75
2022-08-26T07:45:28.007Z,24.05
2022-08-26T07:48:13.430Z,24.14
2022-08-26T07:50:59.336Z,24.32
2022-08-26T07:53:48.033Z,25.16
2022-08-26T07:56:37.717Z,26.01
2022-08-26T07:59:23.267Z,26.56
2022-08-26T08:02:08.454Z,27.32
2022-08-26T08:04:56.969Z,27.83
2022-08-26T08:07:45.344Z,28.16
2022-08-26T08:10:31.779Z,28.36
2022-08-26T08:13:17.082Z,28.32
2022-08-26T08:16:04.417Z,27.37
2022-08-26T08:18:49.320Z,27.50
2022-08-26T08:21:35.162Z,27.42
2022-08-26T08:24:20.067Z,27.65
2022-08-26T08:27:05.629Z,27.87
2022-08-26T08:29:52.278Z,27.85
2022-08-26T08:32:37.984Z,28.16
2022-08-26T08:35:23.895Z,27.68
2022-08-26T08:38:09.171Z,27.89
2022-08-26T08:40:56.033Z,28.34
2022-08-26T08:43:44.754Z,28.78
2022-08-26T08:46:30.285Z,28.91
2022-08-26T08:49:16.922Z,29.01
2022-08-26T08:52:29.350Z,28.49
2022-08-26T08:55:18.207Z,28.71
2022-08-26T08:58:08.140Z,28.46
2022-08-26T09:01:08.424Z,28.92
2022-08-26T09:04:01.174Z,28.69
2022-08-26T09:06:48.624Z,28.53
2022-08-26T09:10:20.507Z,28.78
2022-08-26T09:13:09.688Z,29.05
2022-08-26T09:15:58.815Z,28.86
2022-08-26T09:18:53.499Z,29.29
2022-08-26T09:21:38.843Z,29.85
2022-08-26T09:24:28.554Z,30.11
2022-08-26T09:27:44.979Z,30.47
2022-08-26T09:30:33.195Z,30.42
2022-08-26T09:33:18.503Z,29.83
2022-08-26T09:36:39.220Z,29.59
2022-08-26T09:39:28.929Z,29.18
2022-08-26T09:42:23.108Z,28.90
2022-08-26T09:45:08.154Z,28.75
2022-08-26T09:47:56.862Z,28.50
2022-08-26T09:50:57.737Z,28.35
2022-08-26T09:53:52.315Z,28.12
2022-08-26T09:56:39.185Z,27.60
2022-08-26T09:59:30.974Z,27.05
2022-08-26T10:02:31.267Z,26.65
2022-08-26T10:05:28.137Z,26.42
2022-08-26T10:08:20.864Z,26.19
2022-08-26T10:11:26.113Z,26.34
2022-08-26T10:14:29.745Z,26.48
2022-08-26T10:17:35.231Z,26.66
2022-08-26T10:20:28.144Z,26.59
2022-08-26T10:23:18.415Z,26.37
2022-08-26T10:26:15.945Z,26.42
2022-08-26T10:29:43.013Z,26.52
2022-08-26T10:32:56.441Z,26.67
2022-08-26T10:35:52.091Z,26.81
2022-08-26T10:38:39.385Z,26.89
2022-08-26T10:41:31.362Z,26.99
2022-08-26T10:44:17.922Z,26.99
2022-08-26T10:47:12.605Z,27.08
2022-08-26T10:50:02.983Z,27.10
2022-08-26T10:53:11.334Z,27.11
2022-08-26T10:56:05.659Z,27.20
2022-08-26T10:59:04.524Z,26.91
2022-08-26T11:01:58.430Z,26.90
2022-08-26T11:04:57.350Z,26.70
2022-08-26T11:07:48.071Z,26.86
2022-08-26T11:10:55.406Z,26.96
2022-08-26T11:13:56.307Z,27.18
2022-08-26T11:16:43.979Z,26.98
2022-08-26T11:19:59.560Z,26.85
2022-08-26T11:22:47.542Z,26.70
2022-08-26T11:25:33.256Z,26.92
2022-08-26T11:28:34.847Z,27.14
2022-08-26T11:31:20.203Z,27.15
2022-08-26T11:34:13.487Z,26.99
2022-08-26T11:37:00.367Z,27.00
2022-08-26T11:39:55.557Z,27.17
2022-08-26T11:42:46.576Z,27.20
2022-08-26T11:45:41.339Z,27.18
2022-08-26T11:48:32.368Z,27.29
2022-08-26T11:51:18.610Z,27.12
2022-08-26T11:54:16.389Z,27.15
2022-08-26T11:57:09.248Z,27.25
2022-08-26T11:59:57.486Z,27.55
2022-08-26T12:02:42.871Z,27.56
2022-08-26T12:05:36.795Z,27.82
2022-08-26T12:08:27.977Z,28.17
2022-08-26T12:11:24.982Z,28.64
2022-08-26T12:14:21.603Z,29.16
2022-08-26T12:17:12.772Z,29.29
2022-08-26T12:19:58.074Z,29.67
2022-08-26T12:22:48.192Z,30.15
2022-08-26T12:25:36.209Z,30.40
2022-08-26T12:28:23.194Z,30.53
2022-08-26T12:31:08.643Z,30.60
2022-08-26T12:33:56.677Z,30.86
2022-08-26T12:36:51.975Z,30.79
2022-08-26T12:39:40.740Z,31.10
2022-08-26T12:42:43.233Z,30.81
2022-08-26T12:45:30.838Z,30.71
2022-08-26T12:48:25.504Z,30.09
2022-08-26T12:51:32.590Z,30.06
2022-08-26T12:54:19.793Z,30.46
2022-08-26T12:57:12.497Z,30.65
2022-08-26T13:00:34.530Z,30.50
2022-08-26T13:03:35.133Z,30.83
2022-08-26T13:06:20.494Z,31.23
2022-08-26T13:09:08.581Z,31.56
2022-08-26T13:11:53.332Z,31.46
2022-08-26T13:14:38.416Z,30.92
2022-08-26T13:17:23.358Z,30.80
2022-08-26T13:20:08.543Z,30.26
2022-08-26T13:22:58.785Z,29.88
2022-08-26T13:25:43.897Z,29.77
2022-08-26T13:28:29.161Z,29.69
2022-08-26T13:31:15.822Z,29.61
2022-08-26T13:34:03.358Z,29.43
2022-08-26T13:36:50.469Z,29.18
2022-08-26T13:39:35.621Z,29.23
2022-08-26T13:42:21.791Z,29.34
2022-08-26T13:45:07.524Z,29.41
2022-08-26T13:47:52.701Z,29.34
2022-08-26T13:50:37.504Z,29.34
2022-08-26T13:53:23.237Z,29.22
2022-08-26T13:56:11.088Z,29.28
2022-08-26T13:59:00.445Z,29.19
2022-08-26T14:01:46.057Z,29.10
2022-08-26T14:04:31.535Z,28.94
2022-08-26T14:07:16.785Z,28.71
2022-08-26T14:10:02.683Z,28.65
2022-08-26T14:12:47.968Z,28.55
2022-08-26T14:15:37.710Z,28.15
2022-08-26T14:18:28.380Z,28.03
2022-08-26T14:21:14.055Z,28.00
2022-08-26T14:24:01.034Z,27.85
2022-08-26T14:26:46.485Z,27.68
2022-08-26T14:29:31.956Z,27.56
2022-08-26T14:32:28.392Z,27.38
2022-08-26T14:35:17.228Z,27.37
2022-08-26T14:38:02.272Z,27.20
2022-08-26T14:40:47.663Z,27.07
2022-08-26T14:43:33.404Z,26.96
2022-08-26T14:46:18.845Z,26.98
2022-08-26T14:49:07.307Z,26.92
2022-08-26T14:51:55.173Z,26.93
2022-08-26T14:54:40.024Z,26.99
2022-08-26T14:57:25.026Z,26.98
2022-08-26T15:00:10.414Z,26.91
2022-08-26T15:02:55.579Z,26.76
2022-08-26T15:05:42.203Z,26.67
2022-08-26T15:08:28.925Z,26.66
2022-08-26T15:11:13.854Z,26.62
2022-08-26T15:13:59.275Z,26.58
2022-08-26T15:16:44.502Z,26.46
2022-08-26T15:19:29.314Z,26.45
2022-08-26T15:22:14.863Z,26.28
2022-08-26T15:25:00.725Z,26.20
2022-08-26T15:27:45.939Z,26.21
2022-08-26T15:30:31.526Z,26.19
2022-08-26T15:33:17.197Z,26.23
2022-08-26T15:36:04.039Z,26.12
2022-08-26T15:38:49.171Z,26.06
2022-08-26T15:41:35.133Z,26.10
2022-08-26T15:44:20.492Z,26.09
2022-08-26T15:47:05.543Z,26.14
2022-08-26T15:49:50.732Z,26.12
2022-08-26T15:52:38.610Z,26.15
2022-08-26T15:55:23.875Z,26.11
2022-08-26T15:58:08.877Z,26.02
2022-08-26T16:00:55.525Z,26.01
2022-08-26T16:03:40.820Z,26.04
2022-08-26T16:06:31.262Z,26.01
2022-08-26T16:09:16.213Z,25.96
2022-08-26T16:12:01.583Z,25.87
2022-08-26T16:14:46.761Z,25.70
2022-08-26T16:17:32.018Z,25.67
2022-08-26T16:20:17.039Z,25.60
2022-08-26T16:23:03.906Z,25.61
2022-08-26T16:25:50.358Z,25.68
2022-08-26T16:28:35.870Z,25.60
2022-08-26T16:31:23.424Z,25.57
2022-08-26T16:34:09.664Z,25.59
2022-08-26T16:36:54.689Z,25.60
2022-08-26T16:39:44.869Z,25.55
2022-08-26T16:42:30.565Z,25.34
2022-08-26T16:45:16.357Z,25.30
2022-08-26T16:48:02.490Z,25.32
2022-08-26T16:50:47.307Z,25.26
2022-08-26T16:53:32.293Z,25.18
2022-08-26T16:56:23.463Z,25.09
2022-08-26T16:59:18.841Z,24.87
2022-08-26T17:02:04.360Z,24.90
2022-08-26T17:04:50.464Z,24.90
2022-08-26T17:07:35.658Z,24.88
2022-08-26T17:10:22.239Z,24.90
2022-08-26T17:13:07.727Z,24.89
2022-08-26T17:15:52.997Z,24.94
2022-08-26T17:18:38.493Z,24.99
2022-08-26T17:21:24.921Z,24.94
2022-08-26T17:24:09.934Z,24.92
2022-08-26T17:26:55.854Z,24.96
2022-08-26T17:29:41.229Z,24.96
2022-08-26T17:32:26.672Z,24.89
2022-08-26T17:35:13.351Z,24.85
2022-08-26T17:37:58.365Z,24.79
2022-08-26T17:40:43.298Z,24.71
2022-08-26T17:43:28.652Z,24.63
2022-08-26T17:46:13.519Z,24.62
2022-08-26T17:48:59.598Z,24.57
2022-08-26T17:51:44.598Z,24.44
2022-08-26T17:54:30.181Z,24.39
2022-08-26T17:57:16.640Z,24.40
2022-08-26T18:00:11.274Z,24.30
2022-08-26T18:02:56.796Z,24.24
2022-08-26T18:05:42.410Z,24.13
2022-08-26T18:08:27.394Z,24.05
2022-08-26T18:11:18.997Z,23.90
2022-08-26T18:14:04.476Z,23.80
2022-08-26T18:16:49.387Z,23.71
2022-08-26T18:19:34.979Z,23.65
2022-08-26T18:22:20.722Z,23.62
2022-08-26T18:25:08.133Z,23.64
2022-08-26T18:27:53.639Z,23.56
2022-08-26T18:30:42.181Z,23.48
2022-08-26T18:33:27.234Z,23.43
2022-08-26T18:36:25.192Z,23.38
2022-08-26T18:39:11.832Z,23.47
2022-08-26T18:41:57.278Z,23.51
2022-08-26T18:44:42.764Z,23.57
2022-08-26T18:47:28.301Z,23.57
2022-08-26T18:50:14.120Z,23.60
2022-08-26T18:52:59.253Z,23.64
2022-08-26T18:55:44.648Z,23.69
2022-08-26T18:58:29.499Z,23.76
2022-08-26T19:01:16.879Z,23.82
2022-08-26T19:04:03.925Z,23.76
2022-08-26T19:06:50.826Z,23.64
2022-08-26T19:09:36.128Z,23.44
2022-08-26T19:12:21.838Z,23.40
2022-08-26T19:15:07.338Z,23.37
2022-08-26T19:17:52.530Z,23.29
2022-08-26T19:20:43.471Z,23.28
2022-08-26T19:23:32.435Z,23.16
2022-08-26T19:26:17.953Z,23.17
2022-08-26T19:29:03.389Z,23.12
2022-08-26T19:31:48.724Z,22.92
2022-08-26T19:34:34.028Z,22.86
2022-08-26T19:37:20.427Z,22.86
2022-08-26T19:40:05.974Z,22.81
2022-08-26T19:42:51.644Z,22.74
2022-08-26T19:45:37.334Z,22.66
2022-08-26T19:48:22.795Z,22.73
2022-08-26T19:51:08.101Z,22.67
2022-08-26T19:53:55.547Z,22.53
2022-08-26T19:56:40.686Z,22.52
2022-08-26T19:59:26.272Z,22.49
2022-08-26T20:02:11.792Z,22.49
2022-08-26T20:04:57.061Z,22.52
2022-08-26T20:07:43.133Z,22.48
2022-08-26T20:10:28.312Z,22.53
2022-08-26T20:13:13.573Z,22.55
2022-08-26T20:15:58.530Z,22.43
2022-08-26T20:18:45.017Z,22.35
2022-08-26T20:21:32.631Z,22.32
2022-08-26T20:24:19.236Z,22.32
2022-08-26T20:27:07.685Z,22.16
2022-08-26T20:29:57.220Z,22.05
2022-08-26T20:32:43.011Z,21.94
2022-08-26T20:35:28.188Z,21.71
2022-08-26T20:38:13.599Z,21.76
2022-08-26T20:40:59.026Z,21.69
2022-08-26T20:43:45.211Z,21.68
2022-08-26T20:46:30.313Z,21.57
2022-08-26T20:49:16.088Z,21.56
2022-08-26T20:52:03.073Z,21.56
2022-08-26T20:54:47.941Z,21.54
2022-08-26T20:57:32.818Z,21.41
2022-08-26T21:00:18.614Z,21.46
2022-08-26T21:03:06.913Z,21.57
2022-08-26T21:05:52.263Z,21.65
2022-08-26T21:08:40.870Z,21.62
2022-08-26T21:11:28.697Z,21.71
2022-08-26T21:14:16.167Z,21.78
2022-08-26T21:17:02.255Z,21.72
2022-08-26T21:19:47.416Z,21.68
2022-08-26T21:22:32.971Z,21.76
2022-08-26T21:25:18.619Z,21.74
2022-08-26T21:28:04.258Z,21.73
2022-08-26T21:30:49.336Z,21.76
2022-08-26T21:33:35.236Z,21.74
2022-08-26T21:36:20.252Z,21.82
2022-08-26T21:39:10.733Z,21.89
2022-08-26T21:41:56.424Z,21.93
2022-08-26T21:44:41.905Z,21.92
2022-08-26T21:47:27.522Z,21.94
2022-08-26T21:50:13.039Z,22.00
2022-08-26T21:52:58.112Z,22.02
2022-08-26T21:55:43.518Z,22.06
2022-08-26T21:58:28.417Z,22.03
2022-08-26T22:01:17.722Z,21.98
2022-08-26T22:04:05.266Z,21.88
2022-08-26T22:06:53.324Z,21.84
2022-08-26T22:09:38.748Z,21.75
2022-08-26T22:12:24.336Z,21.70
2022-08-26T22:15:10.101Z,21.70
2022-08-26T22:17:55.157Z,21.76
2022-08-26T22:20:40.531Z,21.82
2022-08-26T22:23:26.150Z,21.79
2022-08-26T22:26:13.517Z,21.77
2022-08-26T22:29:00.113Z,21.82
2022-08-26T22:31:46.050Z,21.75
2022-08-26T22:34:31.164Z,21.66
2022-08-26T22:37:16.124Z,21.61
2022-08-26T22:40:01.034Z,21.57
2022-08-26T22:42:55.722Z,21.53
2022-08-26T22:45:47.903Z,21.51
2022-08-26T22:48:33.061Z,21.53
2022-08-26T22:51:18.679Z,21.51
2022-08-26T22:54:04.875Z,21.51
2022-08-26T22:56:50.238Z,21.51
2022-08-26T22:59:35.512Z,21.53
2022-08-26T23:02:20.915Z,21.55
2022-08-26T23:05:07.392Z,21.60
2022-08-26T23:07:52.722Z,21.64
2022-08-26T23:10:40.753Z,21.61
2022-08-26T23:13:25.820Z,21.47
2022-08-26T23:16:12.635Z,21.45
2022-08-26T23:18:57.803Z,21.31
2022-08-26T23:21:43.517Z,21.32
2022-08-26T23:24:28.332Z,21.28
2022-08-26T23:27:13.649Z,21.25
2022-08-26T23:29:59.030Z,21.27
2022-08-26T23:32:43.976Z,21.25
2022-08-26T23:35:29.587Z,21.22
2022-08-26T23:38:14.863Z,21.16
2022-08-26T23:40:59.981Z,21.10
2022-08-26T23:43:45.497Z,21.13
2022-08-26T23:46:35.066Z,21.17
2022-08-26T23:49:20.399Z,21.21
2022-08-26T23:52:06.476Z,21.21
2022-08-26T23:54:52.354Z,21.25
2022-08-26T23:57:38.063Z,21.30
